createdAt,value
2023-01-13T00:00:15.302Z,7.12
2023-01-13T00:02:41.899Z,7.11
2023-01-13T00:05:08.695Z,7.21
2023-01-13T00:07:35.132Z,7.17
2023-01-13T00:10:01.616Z,7.21
2023-01-13T00:12:28.102Z,7.17
2023-01-13T00:14:54.563Z,7.14
2023-01-13T00:17:22.555Z,7.21
2023-01-13T00:19:49.142Z,7.17
2023-01-13T00:22:15.649Z,7.17
2023-01-13T00:24:42.310Z,7.20
2023-01-13T00:27:08.724Z,7.11
2023-01-13T00:29:35.232Z,7.13
2023-01-13T00:32:01.754Z,7.11
2023-01-13T00:34:28.383Z,7.08
2023-01-13T00:36:54.889Z,7.02
2023-01-13T00:39:21.467Z,7.18
2023-01-13T00:41:48.027Z,7.13
2023-01-13T00:44:14.496Z,7.13
2023-01-13T00:46:40.976Z,7.18
2023-01-13T00:49:07.521Z,7.21
2023-01-13T00:51:34.891Z,7.24
2023-01-13T00:54:01.406Z,7.20
2023-01-13T00:56:39.635Z,7.19
2023-01-13T00:59:11.851Z,7.29
2023-01-13T01:01:38.676Z,7.31
2023-01-13T01:04:05.539Z,7.30
2023-01-13T01:06:32.003Z,7.27
2023-01-13T01:08:58.581Z,7.29
2023-01-13T01:11:30.813Z,7.30
2023-01-13T01:13:58.946Z,7.30
2023-01-13T01:16:28.070Z,7.28
2023-01-13T01:18:55.357Z,7.30
2023-01-13T01:21:23.916Z,7.27
2023-01-13T01:23:50.572Z,7.27
2023-01-13T01:26:19.718Z,7.27
2023-01-13T01:28:47.483Z,7.27
2023-01-13T01:31:22.417Z,7.27
2023-01-13T01:33:49.930Z,7.25
2023-01-13T01:36:18.349Z,7.26
2023-01-13T01:38:45.604Z,7.21
2023-01-13T01:41:18.294Z,7.22
2023-01-13T01:43:59.955Z,7.21
2023-01-13T01:46:27.904Z,7.24
2023-01-13T01:49:00.038Z,7.20
2023-01-13T01:51:30.518Z,7.20
2023-01-13T01:54:00.249Z,7.19
2023-01-13T01:56:27.210Z,7.15
2023-01-13T01:58:54.465Z,7.21
2023-01-13T02:01:21.056Z,7.20
2023-01-13T02:03:56.234Z,7.20
2023-01-13T02:06:23.769Z,7.13
2023-01-13T02:08:51.728Z,7.19
2023-01-13T02:11:35.925Z,7.19
2023-01-13T02:14:02.493Z,7.18
2023-01-13T02:16:29.113Z,7.11
2023-01-13T02:19:16.766Z,7.19
2023-01-13T02:21:55.440Z,7.18
2023-01-13T02:24:56.049Z,7.17
2023-01-13T02:27:34.890Z,7.18
2023-01-13T02:30:15.990Z,7.18
2023-01-13T02:33:01.315Z,7.18
2023-01-13T02:35:36.983Z,7.19
2023-01-13T02:38:05.229Z,7.18
2023-01-13T02:40:43.910Z,7.18
2023-01-13T02:43:37.925Z,7.16
2023-01-13T02:46:21.215Z,7.16
2023-01-13T02:48:50.485Z,7.14
2023-01-13T02:51:21.240Z,7.12
2023-01-13T02:53:54.161Z,7.15
2023-01-13T02:56:22.666Z,7.14
2023-01-13T02:58:50.503Z,7.09
2023-01-13T03:01:17.886Z,7.16
2023-01-13T03:03:44.448Z,7.12
2023-01-13T03:06:17.088Z,7.16
2023-01-13T03:08:49.727Z,7.14
2023-01-13T03:11:19.128Z,7.15
2023-01-13T03:13:54.671Z,7.17
2023-01-13T03:16:49.526Z,7.18
2023-01-13T03:19:30.286Z,7.18
2023-01-13T03:22:28.129Z,7.17
2023-01-13T03:25:15.917Z,7.16
2023-01-13T03:27:51.754Z,7.13
2023-01-13T03:30:50.081Z,7.17
2023-01-13T03:33:21.012Z,7.17
2023-01-13T03:35:51.833Z,7.14
2023-01-13T03:38:24.061Z,7.17
2023-01-13T03:41:05.379Z,7.09
2023-01-13T03:44:03.905Z,7.14
2023-01-13T03:46:38.800Z,7.12
2023-01-13T03:49:06.578Z,7.10
2023-01-13T03:51:35.960Z,7.07
2023-01-13T03:54:07.699Z,7.06
2023-01-13T03:56:39.005Z,7.14
2023-01-13T03:59:11.505Z,7.14
2023-01-13T04:01:52.543Z,7.11
2023-01-13T04:04:24.863Z,7.16
2023-01-13T04:06:58.188Z,7.15
2023-01-13T04:09:55.863Z,7.13
2023-01-13T04:12:31.420Z,7.10
2023-01-13T04:14:58.039Z,7.09
2023-01-13T04:17:24.505Z,7.10
2023-01-13T04:19:51.013Z,7.00
2023-01-13T04:22:17.505Z,7.10
2023-01-13T04:24:44.160Z,7.08
2023-01-13T04:27:10.626Z,7.03
2023-01-13T04:29:37.140Z,7.14
2023-01-13T04:32:03.677Z,7.12
2023-01-13T04:34:30.173Z,7.15
2023-01-13T04:36:56.628Z,7.16
2023-01-13T04:39:23.124Z,7.18
2023-01-13T04:41:49.565Z,7.15
2023-01-13T04:44:16.095Z,7.15
2023-01-13T04:46:42.867Z,7.16
2023-01-13T04:49:09.359Z,7.15
2023-01-13T04:51:35.826Z,7.20
2023-01-13T04:54:02.362Z,7.17
2023-01-13T04:56:28.786Z,7.13
2023-01-13T04:58:55.330Z,7.17
2023-01-13T05:01:21.941Z,7.14
2023-01-13T05:03:48.542Z,7.14
2023-01-13T05:06:15.025Z,7.11
2023-01-13T05:08:41.531Z,7.11
2023-01-13T05:11:08.009Z,7.12
2023-01-13T05:13:34.497Z,7.10
2023-01-13T05:16:01.354Z,7.09
2023-01-13T05:18:30.530Z,7.09
2023-01-13T05:20:57.352Z,7.04
2023-01-13T05:23:23.834Z,7.07
2023-01-13T05:25:50.375Z,7.09
2023-01-13T05:28:17.014Z,7.08
2023-01-13T05:30:45.864Z,7.04
2023-01-13T05:33:15.229Z,7.03
2023-01-13T05:35:43.241Z,7.04
2023-01-13T05:38:10.515Z,7.01
2023-01-13T05:40:41.254Z,7.11
2023-01-13T05:43:13.326Z,7.12
2023-01-13T05:45:39.853Z,7.09
2023-01-13T05:48:06.388Z,7.14
2023-01-13T05:50:32.921Z,7.14
2023-01-13T05:53:04.623Z,7.26
2023-01-13T05:55:31.231Z,7.26
2023-01-13T05:57:57.722Z,7.31
2023-01-13T06:00:24.363Z,7.34
2023-01-13T06:02:52.010Z,7.41
2023-01-13T06:05:18.543Z,7.41
2023-01-13T06:07:45.051Z,7.49
2023-01-13T06:10:11.809Z,7.46
2023-01-13T06:12:38.304Z,7.49
2023-01-13T06:15:05.283Z,7.47
2023-01-13T06:17:31.755Z,7.53
2023-01-13T06:19:58.257Z,7.56
2023-01-13T06:22:28.624Z,7.63
2023-01-13T06:24:55.219Z,7.61
2023-01-13T06:27:22.940Z,7.64
2023-01-13T06:29:50.924Z,7.57
2023-01-13T06:32:22.221Z,7.65
2023-01-13T06:34:58.398Z,7.63
2023-01-13T06:37:26.219Z,7.69
2023-01-13T06:39:57.188Z,7.71
2023-01-13T06:42:25.085Z,7.72
2023-01-13T06:44:51.758Z,7.73
2023-01-13T06:47:18.507Z,7.69
2023-01-13T06:49:44.957Z,7.74
2023-01-13T06:52:11.432Z,7.71
2023-01-13T06:54:37.885Z,7.71
2023-01-13T06:57:04.427Z,7.74
2023-01-13T06:59:31.036Z,7.70
2023-01-13T07:01:57.837Z,7.75
2023-01-13T07:04:24.447Z,7.73
2023-01-13T07:06:51.114Z,7.66
2023-01-13T07:09:17.842Z,7.69
2023-01-13T07:11:44.332Z,7.66
2023-01-13T07:14:10.963Z,7.73
2023-01-13T07:16:37.579Z,7.60
2023-01-13T07:19:04.058Z,7.66
2023-01-13T07:21:30.580Z,7.66
2023-01-13T07:23:57.562Z,7.67
2023-01-13T07:26:24.076Z,7.72
2023-01-13T07:28:50.523Z,7.73
2023-01-13T07:31:19.646Z,7.66
2023-01-13T07:33:46.324Z,7.68
2023-01-13T07:36:13.995Z,7.76
2023-01-13T07:38:41.283Z,7.75
2023-01-13T07:41:07.851Z,7.70
2023-01-13T07:43:34.388Z,7.69
2023-01-13T07:46:05.818Z,7.74
2023-01-13T07:48:34.054Z,7.70
2023-01-13T07:51:06.677Z,7.66
2023-01-13T07:53:33.951Z,7.74
2023-01-13T07:56:02.301Z,7.70
2023-01-13T07:58:29.699Z,7.69
2023-01-13T08:00:56.733Z,7.72
2023-01-13T08:03:23.775Z,7.65
2023-01-13T08:05:50.737Z,7.62
2023-01-13T08:08:17.342Z,7.71
2023-01-13T08:10:43.805Z,7.73
2023-01-13T08:13:16.579Z,7.69
2023-01-13T08:15:43.831Z,7.62
2023-01-13T08:18:11.327Z,7.77
2023-01-13T08:20:38.111Z,7.77
2023-01-13T08:23:07.000Z,7.80
2023-01-13T08:25:33.889Z,7.78
2023-01-13T08:28:00.416Z,7.75
2023-01-13T08:30:27.755Z,7.75
2023-01-13T08:32:54.497Z,7.73
2023-01-13T08:35:21.182Z,7.74
2023-01-13T08:37:48.366Z,7.77
2023-01-13T08:40:15.943Z,7.82
2023-01-13T08:42:42.733Z,7.83
2023-01-13T08:45:10.460Z,7.83
2023-01-13T08:47:36.961Z,7.82
2023-01-13T08:50:04.002Z,7.84
2023-01-13T08:52:30.734Z,7.78
2023-01-13T08:54:57.213Z,7.83
2023-01-13T08:57:23.911Z,7.86
2023-01-13T08:59:50.471Z,7.90
2023-01-13T09:02:19.530Z,7.88
2023-01-13T09:04:46.985Z,7.95
2023-01-13T09:07:14.103Z,7.97
2023-01-13T09:09:41.145Z,8.01
2023-01-13T09:12:10.567Z,8.04
2023-01-13T09:14:38.573Z,8.14
2023-01-13T09:17:05.212Z,8.14
2023-01-13T09:19:31.932Z,8.18
2023-01-13T09:21:58.450Z,8.17
2023-01-13T09:24:25.406Z,8.18
2023-01-13T09:26:52.182Z,8.26
2023-01-13T09:29:19.179Z,8.28
2023-01-13T09:31:45.984Z,8.30
2023-01-13T09:34:20.230Z,8.34
2023-01-13T09:36:46.993Z,8.40
2023-01-13T09:39:14.183Z,8.44
2023-01-13T09:41:47.516Z,8.48
2023-01-13T09:44:25.844Z,8.52
2023-01-13T09:46:59.542Z,8.59
2023-01-13T09:49:38.872Z,8.66
2023-01-13T09:52:17.329Z,8.75
2023-01-13T09:55:02.953Z,8.84
2023-01-13T09:57:34.301Z,9.04
2023-01-13T10:00:01.081Z,9.23
2023-01-13T10:02:39.676Z,9.42
2023-01-13T10:05:16.338Z,9.64
2023-01-13T10:07:50.452Z,9.84
2023-01-13T10:10:32.168Z,9.98
2023-01-13T10:12:58.599Z,10.11
2023-01-13T10:15:26.633Z,10.17
2023-01-13T10:18:05.253Z,10.21
2023-01-13T10:21:11.964Z,10.22
2023-01-13T10:23:47.578Z,10.20
2023-01-13T10:26:22.771Z,10.18
2023-01-13T10:28:56.206Z,10.13
2023-01-13T10:31:24.134Z,10.09
2023-01-13T10:34:02.303Z,9.98
2023-01-13T10:36:28.825Z,9.89
2023-01-13T10:39:08.595Z,9.83
2023-01-13T10:41:35.191Z,9.81
2023-01-13T10:44:15.919Z,9.78
2023-01-13T10:46:57.150Z,9.76
2023-01-13T10:49:35.336Z,9.81
2023-01-13T10:52:03.864Z,9.82
2023-01-13T10:54:31.235Z,9.82
2023-01-13T10:57:20.360Z,9.79
2023-01-13T10:59:48.642Z,9.86
2023-01-13T11:02:28.938Z,9.87
2023-01-13T11:04:55.462Z,9.92
2023-01-13T11:07:47.241Z,9.94
2023-01-13T11:10:27.173Z,10.01
2023-01-13T11:13:11.408Z,10.01
2023-01-13T11:15:47.186Z,9.99
2023-01-13T11:18:21.711Z,9.95
2023-01-13T11:20:50.348Z,10.00
2023-01-13T11:23:24.940Z,10.07
2023-01-13T11:25:59.924Z,10.08
2023-01-13T11:28:44.671Z,10.10
2023-01-13T11:31:24.309Z,10.10
2023-01-13T11:34:08.160Z,10.14
2023-01-13T11:36:52.445Z,10.23
2023-01-13T11:39:42.952Z,10.26
2023-01-13T11:42:24.765Z,10.22
2023-01-13T11:45:13.145Z,10.15
2023-01-13T11:47:39.865Z,10.12
2023-01-13T11:50:16.431Z,10.07
2023-01-13T11:53:09.676Z,10.08
2023-01-13T11:55:42.863Z,10.09
2023-01-13T11:58:38.818Z,10.12
2023-01-13T12:01:23.365Z,10.17
2023-01-13T12:04:18.157Z,10.17
2023-01-13T12:06:45.199Z,10.22
2023-01-13T12:09:40.067Z,10.26
2023-01-13T12:12:28.359Z,10.29
2023-01-13T12:15:26.232Z,10.36
2023-01-13T12:18:01.736Z,10.45
2023-01-13T12:20:43.680Z,10.52
2023-01-13T12:23:23.922Z,10.54
2023-01-13T12:25:55.943Z,10.56
2023-01-13T12:28:41.936Z,10.60
2023-01-13T12:31:09.610Z,10.67
2023-01-13T12:33:51.145Z,10.75
2023-01-13T12:36:47.026Z,10.81
2023-01-13T12:39:13.527Z,10.86
2023-01-13T12:41:55.771Z,10.88
2023-01-13T12:44:22.286Z,10.86
2023-01-13T12:46:52.969Z,10.92
2023-01-13T12:49:25.096Z,10.96
2023-01-13T12:51:51.516Z,11.03
2023-01-13T12:54:30.316Z,11.12
2023-01-13T12:56:57.860Z,11.25
2023-01-13T12:59:24.308Z,11.39
2023-01-13T13:02:12.750Z,11.50
2023-01-13T13:04:50.210Z,11.64
2023-01-13T13:07:26.178Z,11.73
2023-01-13T13:10:13.153Z,11.79
2023-01-13T13:12:42.761Z,11.85
2023-01-13T13:15:50.873Z,11.83
2023-01-13T13:18:17.466Z,11.81
2023-01-13T13:20:53.003Z,11.75
2023-01-13T13:23:34.569Z,11.60
2023-01-13T13:26:16.478Z,11.42
2023-01-13T13:29:13.704Z,11.32
2023-01-13T13:31:43.307Z,11.24
2023-01-13T13:34:12.847Z,11.17
2023-01-13T13:37:16.151Z,11.04
2023-01-13T13:39:44.044Z,10.91
2023-01-13T13:42:19.038Z,10.91
2023-01-13T13:44:49.410Z,10.84
2023-01-13T13:47:16.286Z,10.78
2023-01-13T13:49:45.605Z,10.75
2023-01-13T13:52:32.489Z,10.70
2023-01-13T13:55:08.437Z,10.62
2023-01-13T13:57:40.037Z,10.64
2023-01-13T14:00:23.433Z,10.57
2023-01-13T14:02:56.657Z,10.53
2023-01-13T14:05:24.528Z,10.51
2023-01-13T14:08:02.027Z,10.47
2023-01-13T14:10:36.417Z,10.53
2023-01-13T14:13:14.576Z,10.41
2023-01-13T14:15:41.582Z,10.43
2023-01-13T14:18:15.337Z,10.37
2023-01-13T14:20:43.231Z,10.39
2023-01-13T14:23:17.953Z,10.34
2023-01-13T14:25:49.835Z,10.31
2023-01-13T14:28:27.202Z,10.32
2023-01-13T14:30:55.770Z,10.32
2023-01-13T14:33:33.635Z,10.31
2023-01-13T14:36:07.379Z,10.25
2023-01-13T14:38:34.157Z,10.14
2023-01-13T14:41:10.930Z,10.14
2023-01-13T14:43:43.377Z,10.13
2023-01-13T14:46:10.378Z,10.09
2023-01-13T14:48:37.129Z,10.06
2023-01-13T14:51:06.616Z,9.96
2023-01-13T14:53:43.111Z,9.96
2023-01-13T14:56:49.245Z,9.95
2023-01-13T14:59:36.519Z,9.93
2023-01-13T15:02:35.696Z,9.87
2023-01-13T15:05:17.529Z,9.84
2023-01-13T15:08:14.429Z,9.79
2023-01-13T15:10:53.085Z,9.76
2023-01-13T15:13:40.456Z,9.71
2023-01-13T15:16:16.882Z,9.66
2023-01-13T15:18:43.851Z,9.64
2023-01-13T15:21:10.594Z,9.60
2023-01-13T15:23:37.891Z,9.56
2023-01-13T15:26:12.949Z,9.51
2023-01-13T15:28:39.501Z,9.48
2023-01-13T15:31:06.054Z,9.42
2023-01-13T15:33:32.637Z,9.42
2023-01-13T15:35:59.322Z,9.30
2023-01-13T15:38:25.822Z,9.21
2023-01-13T15:40:52.462Z,9.27
2023-01-13T15:43:21.689Z,9.19
2023-01-13T15:45:48.356Z,9.12
2023-01-13T15:48:14.873Z,9.08
2023-01-13T15:50:41.341Z,9.02
2023-01-13T15:53:13.684Z,9.03
2023-01-13T15:55:43.895Z,9.00
2023-01-13T15:58:14.614Z,8.95
2023-01-13T16:00:41.867Z,8.96
2023-01-13T16:03:13.021Z,8.83
2023-01-13T16:05:43.984Z,8.90
2023-01-13T16:08:22.907Z,8.83
2023-01-13T16:10:50.047Z,8.73
2023-01-13T16:13:17.438Z,8.80
2023-01-13T16:15:47.697Z,8.72
2023-01-13T16:18:19.986Z,8.72
2023-01-13T16:20:47.068Z,8.73
2023-01-13T16:23:13.604Z,8.64
2023-01-13T16:25:40.854Z,8.61
2023-01-13T16:28:07.338Z,8.62
2023-01-13T16:30:36.702Z,8.59
2023-01-13T16:33:04.166Z,8.58
2023-01-13T16:35:30.836Z,8.53
2023-01-13T16:37:57.761Z,8.49
2023-01-13T16:40:29.943Z,8.51
2023-01-13T16:42:57.585Z,8.51
2023-01-13T16:45:24.801Z,8.46
2023-01-13T16:47:51.566Z,8.43
2023-01-13T16:50:29.069Z,8.45
2023-01-13T16:52:55.507Z,8.37
2023-01-13T16:55:22.024Z,8.36
2023-01-13T16:57:48.568Z,8.30
2023-01-13T17:00:15.698Z,8.27
2023-01-13T17:02:42.184Z,8.24
2023-01-13T17:05:11.952Z,8.23
2023-01-13T17:07:41.591Z,8.18
2023-01-13T17:10:08.453Z,8.16
2023-01-13T17:12:34.979Z,8.14
2023-01-13T17:15:01.425Z,8.16
2023-01-13T17:17:28.657Z,8.14
2023-01-13T17:19:55.120Z,8.09
2023-01-13T17:22:21.872Z,8.03
2023-01-13T17:24:48.897Z,8.04
2023-01-13T17:27:15.676Z,8.01
2023-01-13T17:29:42.185Z,7.90
2023-01-13T17:32:14.239Z,7.96
2023-01-13T17:34:40.759Z,7.93
2023-01-13T17:37:08.080Z,7.90
2023-01-13T17:39:34.717Z,7.86
2023-01-13T17:42:01.214Z,7.82
2023-01-13T17:44:27.715Z,7.77
2023-01-13T17:46:54.281Z,7.73
2023-01-13T17:49:20.823Z,7.69
2023-01-13T17:51:48.436Z,7.66
2023-01-13T17:54:15.793Z,7.63
2023-01-13T17:56:42.843Z,7.60
2023-01-13T17:59:12.081Z,7.59
2023-01-13T18:01:39.093Z,7.51
2023-01-13T18:04:06.468Z,7.55
2023-01-13T18:06:34.047Z,7.52
2023-01-13T18:09:01.374Z,7.51
2023-01-13T18:11:28.042Z,7.47
2023-01-13T18:13:55.556Z,7.42
2023-01-13T18:16:22.741Z,7.40
2023-01-13T18:18:51.841Z,7.45
2023-01-13T18:21:24.107Z,7.43
2023-01-13T18:23:51.346Z,7.39
2023-01-13T18:26:19.318Z,7.38
2023-01-13T18:28:46.040Z,7.36
2023-01-13T18:31:12.549Z,7.29
2023-01-13T18:33:39.155Z,7.32
2023-01-13T18:36:07.389Z,7.28
2023-01-13T18:38:33.912Z,7.30
2023-01-13T18:41:00.365Z,7.19
2023-01-13T18:43:26.890Z,7.23
2023-01-13T18:45:53.453Z,7.17
2023-01-13T18:48:20.014Z,7.18
2023-01-13T18:50:46.490Z,7.17
2023-01-13T18:53:12.964Z,7.18
2023-01-13T18:55:39.465Z,7.15
2023-01-13T18:58:06.071Z,7.17
2023-01-13T19:00:32.541Z,7.14
2023-01-13T19:05:33.982Z,7.18
2023-01-13T19:08:00.537Z,7.16
2023-01-13T19:10:27.199Z,7.08
2023-01-13T19:12:56.313Z,7.13
2023-01-13T19:15:22.889Z,7.09
2023-01-13T19:17:49.551Z,7.06
2023-01-13T19:20:16.472Z,7.05
2023-01-13T19:22:43.135Z,6.98
2023-01-13T19:25:09.771Z,6.99
2023-01-13T19:27:36.411Z,6.87
2023-01-13T19:30:04.100Z,6.93
2023-01-13T19:32:32.865Z,6.86
2023-01-13T19:34:59.471Z,6.91
2023-01-13T19:37:26.627Z,6.93
2023-01-13T19:39:53.099Z,6.87
2023-01-13T19:42:19.616Z,6.85
2023-01-13T19:44:46.437Z,6.90
2023-01-13T19:47:15.034Z,6.88
2023-01-13T19:49:41.657Z,6.88
2023-01-13T19:52:08.324Z,6.88
2023-01-13T19:54:35.252Z,6.87
2023-01-13T19:57:01.928Z,6.85
2023-01-13T19:59:28.511Z,6.85
2023-01-13T20:01:57.132Z,6.86
2023-01-13T20:04:24.606Z,6.89
2023-01-13T20:06:51.127Z,6.80
2023-01-13T20:09:17.811Z,6.82
2023-01-13T20:11:44.493Z,6.80
2023-01-13T20:14:11.418Z,6.76
2023-01-13T20:16:38.084Z,6.76
2023-01-13T20:19:04.640Z,6.68
2023-01-13T20:21:31.297Z,6.69
2023-01-13T20:23:57.802Z,6.70
2023-01-13T20:26:24.274Z,6.68
2023-01-13T20:28:50.911Z,6.66
2023-01-13T20:31:17.618Z,6.54
2023-01-13T20:33:44.399Z,6.63
2023-01-13T20:36:24.824Z,6.58
2023-01-13T20:38:51.355Z,6.56
2023-01-13T20:41:17.845Z,6.57
2023-01-13T20:43:44.354Z,6.54
2023-01-13T20:46:10.820Z,6.49
2023-01-13T20:48:38.098Z,6.47
2023-01-13T20:51:04.670Z,6.44
2023-01-13T20:53:31.311Z,6.45
2023-01-13T20:55:57.930Z,6.32
2023-01-13T20:58:24.639Z,6.34
2023-01-13T21:00:51.260Z,6.33
2023-01-13T21:03:17.776Z,6.28
2023-01-13T21:05:44.269Z,6.26
2023-01-13T21:08:10.730Z,6.23
2023-01-13T21:10:37.385Z,6.15
2023-01-13T21:13:03.869Z,6.13
2023-01-13T21:15:30.468Z,6.13
2023-01-13T21:17:56.951Z,6.07
2023-01-13T21:20:23.559Z,6.04
2023-01-13T21:22:50.031Z,5.99
2023-01-13T21:25:17.802Z,5.98
2023-01-13T21:27:44.449Z,5.96
2023-01-13T21:30:11.711Z,5.94
2023-01-13T21:32:38.223Z,5.83
2023-01-13T21:35:05.092Z,5.87
2023-01-13T21:37:31.581Z,5.87
2023-01-13T21:39:58.185Z,5.77
2023-01-13T21:42:24.707Z,5.79
2023-01-13T21:44:51.211Z,5.77
2023-01-13T21:47:18.988Z,5.75
2023-01-13T21:49:45.477Z,5.67
2023-01-13T21:52:13.171Z,5.66
2023-01-13T21:54:40.175Z,5.67
2023-01-13T21:57:06.621Z,5.66
2023-01-13T21:59:33.107Z,5.65
2023-01-13T22:02:22.955Z,5.65
2023-01-13T22:04:46.114Z,5.59
2023-01-13T22:07:12.580Z,5.64
2023-01-13T22:09:39.122Z,5.59
2023-01-13T22:12:05.744Z,5.62
2023-01-13T22:14:32.655Z,5.62
2023-01-13T22:16:59.253Z,5.57
2023-01-13T22:19:25.760Z,5.56
2023-01-13T22:21:52.234Z,5.49
2023-01-13T22:24:18.811Z,5.52
2023-01-13T22:26:45.300Z,5.56
2023-01-13T22:29:11.815Z,5.57
2023-01-13T22:31:38.392Z,5.59
2023-01-13T22:34:05.102Z,5.60
2023-01-13T22:36:31.624Z,5.57
2023-01-13T22:38:58.172Z,5.59
2023-01-13T22:41:24.637Z,5.64
2023-01-13T22:43:51.437Z,5.68
2023-01-13T22:46:17.934Z,5.68
2023-01-13T22:48:45.006Z,5.79
2023-01-13T22:51:14.132Z,5.83
2023-01-13T22:53:41.287Z,5.87
2023-01-13T22:56:09.655Z,5.86
2023-01-13T22:58:36.125Z,5.90
2023-01-13T23:01:17.127Z,5.94
2023-01-13T23:03:43.938Z,5.94
2023-01-13T23:06:10.481Z,5.95
2023-01-13T23:08:37.052Z,6.05
2023-01-13T23:11:09.290Z,6.06
2023-01-13T23:13:36.954Z,6.09
2023-01-13T23:16:05.984Z,6.04
2023-01-13T23:18:32.770Z,6.10
2023-01-13T23:21:08.202Z,6.13
2023-01-13T23:23:34.908Z,6.15
2023-01-13T23:26:01.555Z,6.18
2023-01-13T23:28:28.217Z,6.24
2023-01-13T23:30:54.943Z,6.25
2023-01-13T23:33:22.165Z,6.28
2023-01-13T23:35:56.277Z,6.28
2023-01-13T23:38:23.082Z,6.33
2023-01-13T23:40:49.599Z,6.36
2023-01-13T23:43:16.477Z,6.38
2023-01-13T23:45:42.970Z,6.30
2023-01-13T23:48:09.738Z,6.44
2023-01-13T23:50:36.331Z,6.40
2023-01-13T23:53:03.177Z,6.47
2023-01-13T23:55:29.717Z,6.48
2023-01-13T23:57:56.323Z,6.53
